createdAt,value
2023-01-30T00:01:29.932Z,71.63
2023-01-30T00:05:31.365Z,71.89
2023-01-30T00:09:32.811Z,72.24
2023-01-30T00:13:36.332Z,72.80
2023-01-30T00:17:37.779Z,71.78
2023-01-30T00:21:39.232Z,71.89
2023-01-30T00:25:40.912Z,72.10
2023-01-30T00:29:49.304Z,71.75
2023-01-30T00:33:55.778Z,71.82
2023-01-30T00:37:58.202Z,72.10
2023-01-30T00:41:59.645Z,71.71
2023-01-30T00:46:04.710Z,71.53
2023-01-30T00:50:06.796Z,70.94
2023-01-30T00:54:08.594Z,70.91
2023-01-30T00:58:10.084Z,71.52
2023-01-30T01:02:13.068Z,71.67
2023-01-30T01:06:14.529Z,71.62
2023-01-30T01:10:16.757Z,72.13
2023-01-30T01:14:18.261Z,72.15
2023-01-30T01:18:21.310Z,71.73
2023-01-30T01:22:22.772Z,72.45
2023-01-30T01:26:24.497Z,72.43
2023-01-30T01:30:25.985Z,72.95
2023-01-30T01:34:28.774Z,72.72
2023-01-30T01:38:30.371Z,73.33
2023-01-30T01:42:36.082Z,73.69
2023-01-30T01:46:41.457Z,73.37
2023-01-30T01:50:48.347Z,74.38
2023-01-30T01:54:54.549Z,74.84
2023-01-30T01:58:59.169Z,74.45
2023-01-30T02:03:04.813Z,74.92
2023-01-30T02:07:08.925Z,75.62
2023-01-30T02:11:15.295Z,76.11
2023-01-30T02:15:17.914Z,76.33
2023-01-30T02:19:41.047Z,76.52
2023-01-30T02:24:10.235Z,77.06
2023-01-30T02:28:37.791Z,77.85
2023-01-30T02:32:50.412Z,77.77
2023-01-30T02:37:01.108Z,77.93
2023-01-30T02:41:16.903Z,77.86
2023-01-30T02:45:26.483Z,77.65
2023-01-30T02:49:32.221Z,77.37
2023-01-30T02:53:34.295Z,77.50
2023-01-30T02:57:35.738Z,77.72
2023-01-30T03:02:02.480Z,77.41
2023-01-30T03:06:41.541Z,77.22
2023-01-30T03:10:51.178Z,77.54
2023-01-30T03:14:59.130Z,77.38
2023-01-30T03:19:01.282Z,77.42
2023-01-30T03:23:04.280Z,77.31
2023-01-30T03:27:09.572Z,77.56
2023-01-30T03:31:11.107Z,77.16
2023-01-30T03:35:12.783Z,77.35
2023-01-30T03:39:15.765Z,77.67
2023-01-30T03:43:17.193Z,77.57
2023-01-30T03:47:18.667Z,77.61
2023-01-30T03:51:20.089Z,77.66
2023-01-30T03:55:22.907Z,77.10
2023-01-30T03:59:24.425Z,76.95
2023-01-30T04:03:25.932Z,76.87
2023-01-30T04:07:28.970Z,76.35
2023-01-30T04:11:31.863Z,76.26
2023-01-30T04:15:33.666Z,76.06
2023-01-30T04:19:35.219Z,76.13
2023-01-30T04:23:36.839Z,75.70
2023-01-30T04:27:39.635Z,75.57
2023-01-30T04:31:41.123Z,76.05
2023-01-30T04:35:51.646Z,75.85
2023-01-30T04:39:53.194Z,76.12
2023-01-30T04:43:56.032Z,75.87
2023-01-30T04:47:57.463Z,76.22
2023-01-30T04:51:58.976Z,75.59
2023-01-30T04:56:00.499Z,75.49
2023-01-30T05:00:03.924Z,75.58
2023-01-30T05:04:07.226Z,75.73
2023-01-30T05:08:09.283Z,75.89
2023-01-30T05:12:10.724Z,75.09
2023-01-30T05:16:14.953Z,75.65
2023-01-30T05:20:16.607Z,75.64
2023-01-30T05:24:18.074Z,75.33
2023-01-30T05:28:19.563Z,75.94
2023-01-30T05:32:22.420Z,75.12
2023-01-30T05:36:24.424Z,75.45
2023-01-30T05:40:25.848Z,76.27
2023-01-30T05:44:27.293Z,76.17
2023-01-30T05:48:30.494Z,76.95
2023-01-30T05:52:31.948Z,77.22
2023-01-30T05:56:33.744Z,77.52
2023-01-30T06:00:35.227Z,77.45
2023-01-30T06:04:38.025Z,76.95
2023-01-30T06:08:39.885Z,76.72
2023-01-30T06:12:41.966Z,76.92
2023-01-30T06:16:43.438Z,77.24
2023-01-30T06:20:48.992Z,77.12
2023-01-30T06:24:50.483Z,77.11
2023-01-30T06:28:51.899Z,77.47
2023-01-30T06:32:53.336Z,78.18
2023-01-30T06:36:56.126Z,78.13
2023-01-30T06:40:57.575Z,77.89
2023-01-30T06:44:59.040Z,79.86
2023-01-30T06:49:00.503Z,81.37
2023-01-30T06:53:04.755Z,83.01
2023-01-30T06:57:06.387Z,84.94
2023-01-30T07:01:07.939Z,85.75
2023-01-30T07:05:10.100Z,87.96
2023-01-30T07:09:12.911Z,88.68
2023-01-30T07:13:14.358Z,87.72
2023-01-30T07:17:15.901Z,86.58
2023-01-30T07:21:17.330Z,85.77
2023-01-30T07:25:20.997Z,85.16
2023-01-30T07:29:22.677Z,84.46
2023-01-30T07:33:24.226Z,83.57
2023-01-30T07:37:25.667Z,83.58
2023-01-30T07:41:28.502Z,83.25
2023-01-30T07:45:35.424Z,83.13
2023-01-30T07:49:37.184Z,82.86
2023-01-30T07:53:38.743Z,83.59
2023-01-30T07:57:41.528Z,83.22
2023-01-30T08:01:43.084Z,83.97
2023-01-30T08:05:46.295Z,83.05
2023-01-30T08:09:47.750Z,83.40
2023-01-30T08:13:50.633Z,84.97
2023-01-30T08:17:56.181Z,85.11
2023-01-30T08:21:59.068Z,87.79
2023-01-30T08:26:03.195Z,87.70
2023-01-30T08:30:07.489Z,87.79
2023-01-30T08:34:08.939Z,87.45
2023-01-30T08:38:10.450Z,86.89
2023-01-30T08:42:11.930Z,87.99
2023-01-30T08:46:14.753Z,87.69
2023-01-30T08:50:16.642Z,86.48
2023-01-30T08:54:18.398Z,85.97
2023-01-30T08:58:20.514Z,85.71
2023-01-30T09:02:23.370Z,84.69
2023-01-30T09:06:26.300Z,84.41
2023-01-30T09:10:27.968Z,83.53
2023-01-30T09:14:29.576Z,82.45
2023-01-30T09:18:32.515Z,82.52
2023-01-30T09:22:34.064Z,82.60
2023-01-30T09:26:35.545Z,82.61
2023-01-30T09:30:37.092Z,82.26
2023-01-30T09:34:39.981Z,82.27
2023-01-30T09:38:41.456Z,81.39
2023-01-30T09:43:02.935Z,82.61
2023-01-30T09:47:10.743Z,81.91
2023-01-30T09:51:35.395Z,81.50
2023-01-30T09:55:40.256Z,81.08
2023-01-30T09:59:53.415Z,79.78
2023-01-30T10:04:03.053Z,78.61
2023-01-30T10:08:18.030Z,78.05
2023-01-30T10:12:36.018Z,77.38
2023-01-30T10:16:45.120Z,77.01
2023-01-30T10:20:55.968Z,77.21
2023-01-30T10:25:12.157Z,76.42
2023-01-30T10:29:18.063Z,75.97
2023-01-30T10:33:26.201Z,76.37
2023-01-30T10:37:32.330Z,75.70
2023-01-30T10:41:38.040Z,75.93
2023-01-30T10:45:49.100Z,75.98
2023-01-30T10:49:53.159Z,76.76
2023-01-30T10:54:00.640Z,78.23
2023-01-30T10:58:12.225Z,79.61
2023-01-30T11:02:24.164Z,80.24
2023-01-30T11:06:26.349Z,80.15
2023-01-30T11:10:28.067Z,79.60
2023-01-30T11:14:50.152Z,79.35
2023-01-30T11:19:19.745Z,79.62
2023-01-30T11:23:25.310Z,80.57
2023-01-30T11:27:29.193Z,80.78
2023-01-30T11:31:41.447Z,80.94
2023-01-30T11:35:52.094Z,80.88
2023-01-30T11:39:53.627Z,80.78
2023-01-30T11:44:01.027Z,80.74
2023-01-30T11:48:07.853Z,81.40
2023-01-30T11:52:13.106Z,81.59
2023-01-30T11:56:19.968Z,81.34
2023-01-30T12:00:23.993Z,80.93
2023-01-30T12:04:28.533Z,81.18
2023-01-30T12:08:43.590Z,80.59
2023-01-30T12:12:49.203Z,80.63
2023-01-30T12:16:57.760Z,80.36
2023-01-30T12:21:02.403Z,79.68
2023-01-30T12:25:13.639Z,79.78
2023-01-30T12:29:24.304Z,79.75
2023-01-30T12:33:29.888Z,80.14
2023-01-30T12:37:46.050Z,79.70
2023-01-30T12:42:22.848Z,79.53
2023-01-30T12:46:40.101Z,77.93
2023-01-30T12:50:55.351Z,77.95
2023-01-30T12:55:04.687Z,78.11
2023-01-30T12:59:11.861Z,78.89
2023-01-30T13:03:23.313Z,78.79
2023-01-30T13:07:33.068Z,77.30
2023-01-30T13:11:48.012Z,76.07
2023-01-30T13:15:58.581Z,75.40
2023-01-30T13:20:05.974Z,76.15
2023-01-30T13:24:17.079Z,75.03
2023-01-30T13:28:25.896Z,72.78
2023-01-30T13:32:35.932Z,71.32
2023-01-30T13:36:43.399Z,71.46
2023-01-30T13:40:48.573Z,70.39
2023-01-30T13:44:53.201Z,69.71
2023-01-30T13:49:09.013Z,69.69
2023-01-30T13:53:19.668Z,70.08
2023-01-30T13:57:29.683Z,70.37
2023-01-30T14:02:04.540Z,72.80
2023-01-30T14:06:11.679Z,73.80
2023-01-30T14:10:15.823Z,74.36
2023-01-30T14:14:26.300Z,75.25
2023-01-30T14:18:31.142Z,75.70
2023-01-30T14:22:39.525Z,76.00
2023-01-30T14:27:05.155Z,75.58
2023-01-30T14:31:07.748Z,76.29
2023-01-30T14:35:26.590Z,76.65
2023-01-30T14:39:39.836Z,77.23
2023-01-30T14:43:53.241Z,77.33
2023-01-30T14:48:26.285Z,77.42
2023-01-30T14:52:38.216Z,77.21
2023-01-30T14:56:45.010Z,77.24
2023-01-30T15:00:46.572Z,77.48
2023-01-30T15:04:54.201Z,77.13
2023-01-30T15:08:56.805Z,78.31
2023-01-30T15:13:38.205Z,78.88
2023-01-30T15:18:07.238Z,79.24
2023-01-30T15:22:20.254Z,79.39
2023-01-30T15:26:34.250Z,79.65
2023-01-30T15:31:04.173Z,79.53
2023-01-30T15:35:21.835Z,79.49
2023-01-30T15:39:24.735Z,83.71
2023-01-30T15:43:53.382Z,85.37
2023-01-30T15:48:20.503Z,86.56
2023-01-30T15:52:25.629Z,88.12
2023-01-30T15:56:31.139Z,89.14
2023-01-30T16:00:37.140Z,89.51
2023-01-30T16:04:40.035Z,89.12
2023-01-30T16:08:41.603Z,88.81
2023-01-30T16:12:43.475Z,88.12
2023-01-30T16:16:49.687Z,87.99
2023-01-30T16:21:01.975Z,87.73
2023-01-30T16:25:05.613Z,87.95
2023-01-30T16:29:14.077Z,87.82
2023-01-30T16:33:16.624Z,86.67
2023-01-30T16:37:27.284Z,86.67
2023-01-30T16:41:31.026Z,86.06
2023-01-30T16:46:24.122Z,85.08
2023-01-30T16:50:25.766Z,83.50
2023-01-30T16:54:30.824Z,83.74
2023-01-30T16:58:34.960Z,82.84
2023-01-30T17:02:39.975Z,84.30
2023-01-30T17:06:42.822Z,84.42
2023-01-30T17:10:53.465Z,84.93
2023-01-30T17:15:25.903Z,85.79
2023-01-30T17:19:27.677Z,86.24
2023-01-30T17:23:29.233Z,86.55
2023-01-30T17:27:32.572Z,86.30
2023-01-30T17:31:34.190Z,84.69
2023-01-30T17:35:37.262Z,84.45
2023-01-30T17:39:38.793Z,85.34
2023-01-30T17:43:41.639Z,85.08
2023-01-30T17:47:43.116Z,86.20
2023-01-30T17:51:45.101Z,87.41
2023-01-30T17:55:46.626Z,86.63
2023-01-30T17:59:49.435Z,86.41
2023-01-30T18:03:50.962Z,84.88
2023-01-30T18:07:52.406Z,83.60
2023-01-30T18:11:53.884Z,83.02
2023-01-30T18:15:58.770Z,82.90
2023-01-30T18:20:00.199Z,82.01
2023-01-30T18:24:01.989Z,82.55
2023-01-30T18:28:03.800Z,82.48
2023-01-30T18:32:06.827Z,82.17
2023-01-30T18:36:10.140Z,81.51
2023-01-30T18:40:12.532Z,81.43
2023-01-30T18:44:14.082Z,80.81
2023-01-30T18:48:16.865Z,80.32
2023-01-30T18:52:18.357Z,79.93
2023-01-30T18:56:22.935Z,80.37
2023-01-30T19:00:24.531Z,79.94
2023-01-30T19:04:27.378Z,79.74
2023-01-30T19:08:28.829Z,79.97
2023-01-30T19:12:30.265Z,79.72
2023-01-30T19:16:33.430Z,78.83
2023-01-30T19:20:36.227Z,79.36
2023-01-30T19:24:37.779Z,79.19
2023-01-30T19:28:39.257Z,79.33
2023-01-30T19:32:40.745Z,78.99
2023-01-30T19:36:43.530Z,78.94
2023-01-30T19:40:46.588Z,78.79
2023-01-30T19:44:48.062Z,78.31
2023-01-30T19:48:49.976Z,77.86
2023-01-30T19:52:53.475Z,77.62
2023-01-30T19:56:54.911Z,77.62
2023-01-30T20:01:06.200Z,77.53
2023-01-30T20:05:09.025Z,77.79
2023-01-30T20:09:12.230Z,77.10
2023-01-30T20:13:13.729Z,77.74
2023-01-30T20:17:15.182Z,77.97
2023-01-30T20:21:18.708Z,77.21
2023-01-30T20:25:21.581Z,77.39
2023-01-30T20:29:23.139Z,77.35
2023-01-30T20:33:24.995Z,78.10
2023-01-30T20:37:26.702Z,78.06
2023-01-30T20:41:30.138Z,77.83
2023-01-30T20:45:31.654Z,78.04
2023-01-30T20:49:33.081Z,78.64
2023-01-30T20:53:35.580Z,77.87
2023-01-30T20:57:41.541Z,77.51
2023-01-30T21:01:43.508Z,78.09
2023-01-30T21:05:45.013Z,77.90
2023-01-30T21:09:46.444Z,77.63
2023-01-30T21:13:49.336Z,77.92
2023-01-30T21:17:51.627Z,78.21
2023-01-30T21:21:54.338Z,77.34
2023-01-30T21:25:56.432Z,77.51
2023-01-30T21:29:59.224Z,76.59
2023-01-30T21:34:00.735Z,77.65
2023-01-30T21:38:02.171Z,79.36
2023-01-30T21:42:03.809Z,82.37
2023-01-30T21:46:07.061Z,85.07
2023-01-30T21:50:09.860Z,87.67
2023-01-30T21:54:11.664Z,88.17
2023-01-30T21:58:13.180Z,88.21
2023-01-30T22:02:15.994Z,86.91
2023-01-30T22:06:17.449Z,87.52
2023-01-30T22:10:18.979Z,85.19
2023-01-30T22:14:20.426Z,85.14
2023-01-30T22:18:23.334Z,85.32
2023-01-30T22:22:25.263Z,83.97
2023-01-30T22:26:26.928Z,83.01
2023-01-30T22:30:28.472Z,83.39
2023-01-30T22:34:31.256Z,83.12
2023-01-30T22:38:33.787Z,82.49
2023-01-30T22:42:35.248Z,81.00
2023-01-30T22:46:38.934Z,81.29
2023-01-30T22:50:42.359Z,80.07
2023-01-30T22:54:43.801Z,80.36
2023-01-30T22:58:46.165Z,81.26
2023-01-30T23:02:47.717Z,80.48
2023-01-30T23:06:51.538Z,80.33
2023-01-30T23:10:53.220Z,80.56
2023-01-30T23:14:54.675Z,79.84
2023-01-30T23:18:56.137Z,80.06
2023-01-30T23:22:58.912Z,80.08
2023-01-30T23:27:00.347Z,80.39
2023-01-30T23:31:06.964Z,81.53
2023-01-30T23:35:08.507Z,83.21
2023-01-30T23:39:12.766Z,85.65
2023-01-30T23:43:14.696Z,86.22
2023-01-30T23:47:16.177Z,86.13
2023-01-30T23:51:19.531Z,84.33
2023-01-30T23:55:22.366Z,82.91
2023-01-30T23:59:23.817Z,82.64
